sensor_id;sensor_type;location;lat;lon;timestamp;temperature;humidity
35970;DHT22;22448;51.298;6.430;2023-08-20T00:01:27;18.10;99.90
35970;DHT22;22448;51.298;6.430;2023-08-20T00:03:55;18.10;99.90
35970;DHT22;22448;51.298;6.430;2023-08-20T00:06:23;18.10;99.90
35970;DHT22;22448;51.298;6.430;2023-08-20T00:08:50;18.10;99.90
35970;DHT22;22448;51.298;6.430;2023-08-20T00:11:18;18.10;99.90
35970;DHT22;22448;51.298;6.430;2023-08-20T00:13:45;18.10;99.90
35970;DHT22;22448;51.298;6.430;2023-08-20T00:16:13;18.10;99.90
35970;DHT22;22448;51.298;6.430;2023-08-20T00:18:40;18.10;99.90
35970;DHT22;22448;51.298;6.430;2023-08-20T00:21:08;18.10;99.90
35970;DHT22;22448;51.298;6.430;2023-08-20T00:23:36;18.10;99.90
35970;DHT22;22448;51.298;6.430;2023-08-20T00:26:03;18.10;99.90
35970;DHT22;22448;51.298;6.430;2023-08-20T00:28:31;18.00;99.90
35970;DHT22;22448;51.298;6.430;2023-08-20T00:31:02;18.00;99.90
35970;DHT22;22448;51.298;6.430;2023-08-20T00:33:29;18.00;99.90
35970;DHT22;22448;51.298;6.430;2023-08-20T00:35:56;18.00;99.90
35970;DHT22;22448;51.298;6.430;2023-08-20T00:38:24;17.90;99.90
35970;DHT22;22448;51.298;6.430;2023-08-20T00:40:51;17.90;99.90
35970;DHT22;22448;51.298;6.430;2023-08-20T00:43:18;17.80;99.90
35970;DHT22;22448;51.298;6.430;2023-08-20T00:45:45;17.80;99.90
35970;DHT22;22448;51.298;6.430;2023-08-20T00:48:12;17.80;99.90
35970;DHT22;22448;51.298;6.430;2023-08-20T00:50:40;17.80;99.90
35970;DHT22;22448;51.298;6.430;2023-08-20T00:53:10;17.80;99.90
35970;DHT22;22448;51.298;6.430;2023-08-20T00:55:38;17.70;99.90
35970;DHT22;22448;51.298;6.430;2023-08-20T00:58:06;17.70;99.90
35970;DHT22;22448;51.298;6.430;2023-08-20T01:00:33;17.80;99.90
35970;DHT22;22448;51.298;6.430;2023-08-20T01:03:00;17.80;99.90
35970;DHT22;22448;51.298;6.430;2023-08-20T01:05:32;17.70;99.90
35970;DHT22;22448;51.298;6.430;2023-08-20T01:08:19;17.70;99.90
35970;DHT22;22448;51.298;6.430;2023-08-20T01:10:57;17.70;99.90
35970;DHT22;22448;51.298;6.430;2023-08-20T01:13:25;17.70;99.90
35970;DHT22;22448;51.298;6.430;2023-08-20T01:15:52;17.70;99.90
35970;DHT22;22448;51.298;6.430;2023-08-20T01:18:19;17.70;99.90
35970;DHT22;22448;51.298;6.430;2023-08-20T01:20:55;17.70;99.90
35970;DHT22;22448;51.298;6.430;2023-08-20T01:29:10;17.90;99.90
35970;DHT22;22448;51.298;6.430;2023-08-20T01:31:38;17.90;99.90
35970;DHT22;22448;51.298;6.430;2023-08-20T01:34:06;17.90;99.90
35970;DHT22;22448;51.298;6.430;2023-08-20T01:36:34;17.90;99.90
35970;DHT22;22448;51.298;6.430;2023-08-20T01:39:01;17.90;99.90
35970;DHT22;22448;51.298;6.430;2023-08-20T01:41:31;17.90;99.90
35970;DHT22;22448;51.298;6.430;2023-08-20T01:43:59;17.90;99.90
35970;DHT22;22448;51.298;6.430;2023-08-20T01:46:26;17.90;99.90
35970;DHT22;22448;51.298;6.430;2023-08-20T01:48:54;17.80;99.90
35970;DHT22;22448;51.298;6.430;2023-08-20T01:51:21;17.80;99.90
35970;DHT22;22448;51.298;6.430;2023-08-20T01:53:48;17.80;99.90
35970;DHT22;22448;51.298;6.430;2023-08-20T01:56:15;17.80;99.90
35970;DHT22;22448;51.298;6.430;2023-08-20T01:58:43;17.80;99.90
35970;DHT22;22448;51.298;6.430;2023-08-20T02:01:10;17.80;99.90
35970;DHT22;22448;51.298;6.430;2023-08-20T02:03:37;17.80;99.90
35970;DHT22;22448;51.298;6.430;2023-08-20T02:06:05;17.70;99.90
35970;DHT22;22448;51.298;6.430;2023-08-20T02:08:32;17.70;99.90
35970;DHT22;22448;51.298;6.430;2023-08-20T02:11:03;17.70;99.90
35970;DHT22;22448;51.298;6.430;2023-08-20T02:13:31;17.70;99.90
35970;DHT22;22448;51.298;6.430;2023-08-20T02:16:04;17.70;99.90
35970;DHT22;22448;51.298;6.430;2023-08-20T02:18:32;17.70;99.90
35970;DHT22;22448;51.298;6.430;2023-08-20T02:21:00;17.80;99.90
35970;DHT22;22448;51.298;6.430;2023-08-20T02:23:27;17.70;99.90
35970;DHT22;22448;51.298;6.430;2023-08-20T02:25:54;17.70;99.90
35970;DHT22;22448;51.298;6.430;2023-08-20T02:28:22;17.70;99.90
35970;DHT22;22448;51.298;6.430;2023-08-20T02:30:50;17.70;99.90
35970;DHT22;22448;51.298;6.430;2023-08-20T02:33:17;17.70;99.90
35970;DHT22;22448;51.298;6.430;2023-08-20T02:35:44;17.70;99.90
35970;DHT22;22448;51.298;6.430;2023-08-20T02:38:11;17.60;99.90
35970;DHT22;22448;51.298;6.430;2023-08-20T02:40:40;17.50;99.90
35970;DHT22;22448;51.298;6.430;2023-08-20T02:43:08;17.50;99.90
35970;DHT22;22448;51.298;6.430;2023-08-20T02:45:42;17.50;99.90
35970;DHT22;22448;51.298;6.430;2023-08-20T02:48:10;17.50;99.90
35970;DHT22;22448;51.298;6.430;2023-08-20T02:50:37;17.50;99.90
35970;DHT22;22448;51.298;6.430;2023-08-20T02:53:04;17.40;99.90
35970;DHT22;22448;51.298;6.430;2023-08-20T02:55:33;17.40;99.90
35970;DHT22;22448;51.298;6.430;2023-08-20T02:58:00;17.40;99.90
35970;DHT22;22448;51.298;6.430;2023-08-20T03:00:27;17.30;99.90
35970;DHT22;22448;51.298;6.430;2023-08-20T03:02:54;17.40;99.90
35970;DHT22;22448;51.298;6.430;2023-08-20T03:05:21;17.40;99.90
35970;DHT22;22448;51.298;6.430;2023-08-20T03:07:48;17.40;99.90
35970;DHT22;22448;51.298;6.430;2023-08-20T03:10:16;17.50;99.90
35970;DHT22;22448;51.298;6.430;2023-08-20T03:12:43;17.50;99.90
35970;DHT22;22448;51.298;6.430;2023-08-20T03:15:10;17.50;99.90
35970;DHT22;22448;51.298;6.430;2023-08-20T03:17:37;17.50;99.90
35970;DHT22;22448;51.298;6.430;2023-08-20T03:20:06;17.50;99.90
35970;DHT22;22448;51.298;6.430;2023-08-20T03:22:33;17.50;99.90
35970;DHT22;22448;51.298;6.430;2023-08-20T03:25:00;17.50;99.90
35970;DHT22;22448;51.298;6.430;2023-08-20T03:27:27;17.50;99.90
35970;DHT22;22448;51.298;6.430;2023-08-20T03:29:55;17.50;99.90
35970;DHT22;22448;51.298;6.430;2023-08-20T03:32:22;17.40;99.90
35970;DHT22;22448;51.298;6.430;2023-08-20T03:34:50;17.40;99.90
35970;DHT22;22448;51.298;6.430;2023-08-20T03:37:18;17.40;99.90
35970;DHT22;22448;51.298;6.430;2023-08-20T03:39:45;17.40;99.90
35970;DHT22;22448;51.298;6.430;2023-08-20T03:42:12;17.30;99.90
35970;DHT22;22448;51.298;6.430;2023-08-20T03:44:39;17.30;99.90
35970;DHT22;22448;51.298;6.430;2023-08-20T03:47:07;17.30;99.90
35970;DHT22;22448;51.298;6.430;2023-08-20T03:49:36;17.30;99.90
35970;DHT22;22448;51.298;6.430;2023-08-20T03:52:03;17.20;99.90
35970;DHT22;22448;51.298;6.430;2023-08-20T03:54:31;17.20;99.90
35970;DHT22;22448;51.298;6.430;2023-08-20T03:56:58;17.20;99.90
35970;DHT22;22448;51.298;6.430;2023-08-20T03:59:25;17.20;99.90
35970;DHT22;22448;51.298;6.430;2023-08-20T04:01:52;17.10;99.90
35970;DHT22;22448;51.298;6.430;2023-08-20T04:04:19;17.10;99.90
35970;DHT22;22448;51.298;6.430;2023-08-20T04:06:48;17.10;99.90
35970;DHT22;22448;51.298;6.430;2023-08-20T04:09:15;17.10;99.90
35970;DHT22;22448;51.298;6.430;2023-08-20T04:11:43;17.10;99.90
35970;DHT22;22448;51.298;6.430;2023-08-20T04:14:10;17.00;99.90
35970;DHT22;22448;51.298;6.430;2023-08-20T04:16:37;17.00;99.90
35970;DHT22;22448;51.298;6.430;2023-08-20T04:19:04;17.00;99.90
35970;DHT22;22448;51.298;6.430;2023-08-20T04:21:31;17.00;99.90
35970;DHT22;22448;51.298;6.430;2023-08-20T04:23:58;17.00;99.90
35970;DHT22;22448;51.298;6.430;2023-08-20T04:26:26;16.90;99.90
35970;DHT22;22448;51.298;6.430;2023-08-20T04:28:53;17.00;99.90
35970;DHT22;22448;51.298;6.430;2023-08-20T04:31:20;17.00;99.90
35970;DHT22;22448;51.298;6.430;2023-08-20T04:33:56;16.90;99.90
35970;DHT22;22448;51.298;6.430;2023-08-20T04:36:34;16.90;99.90
35970;DHT22;22448;51.298;6.430;2023-08-20T04:39:01;16.90;99.90
35970;DHT22;22448;51.298;6.430;2023-08-20T04:41:29;16.90;99.90
35970;DHT22;22448;51.298;6.430;2023-08-20T04:43:56;16.90;99.90
35970;DHT22;22448;51.298;6.430;2023-08-20T04:46:24;16.90;99.90
35970;DHT22;22448;51.298;6.430;2023-08-20T04:48:51;16.90;99.90
35970;DHT22;22448;51.298;6.430;2023-08-20T04:51:18;16.90;99.90
35970;DHT22;22448;51.298;6.430;2023-08-20T04:53:45;16.90;99.90
35970;DHT22;22448;51.298;6.430;2023-08-20T04:56:14;17.00;99.90
35970;DHT22;22448;51.298;6.430;2023-08-20T04:58:41;17.00;99.90
35970;DHT22;22448;51.298;6.430;2023-08-20T05:01:08;17.00;99.90
35970;DHT22;22448;51.298;6.430;2023-08-20T05:03:36;17.10;99.90
35970;DHT22;22448;51.298;6.430;2023-08-20T05:06:03;17.20;99.90
35970;DHT22;22448;51.298;6.430;2023-08-20T05:08:31;17.20;99.90
35970;DHT22;22448;51.298;6.430;2023-08-20T05:10:59;17.20;99.90
35970;DHT22;22448;51.298;6.430;2023-08-20T05:13:28;17.30;99.90
35970;DHT22;22448;51.298;6.430;2023-08-20T05:15:55;17.40;99.90
35970;DHT22;22448;51.298;6.430;2023-08-20T05:18:24;17.50;99.90
35970;DHT22;22448;51.298;6.430;2023-08-20T05:20:53;17.50;99.90
35970;DHT22;22448;51.298;6.430;2023-08-20T05:23:21;17.70;99.90
35970;DHT22;22448;51.298;6.430;2023-08-20T05:25:48;17.80;99.90
35970;DHT22;22448;51.298;6.430;2023-08-20T05:28:15;17.90;99.90
35970;DHT22;22448;51.298;6.430;2023-08-20T05:30:42;18.00;99.90
35970;DHT22;22448;51.298;6.430;2023-08-20T05:33:09;18.90;99.90
35970;DHT22;22448;51.298;6.430;2023-08-20T05:35:36;20.20;99.90
35970;DHT22;22448;51.298;6.430;2023-08-20T05:38:03;21.20;99.90
35970;DHT22;22448;51.298;6.430;2023-08-20T05:40:31;22.20;99.90
35970;DHT22;22448;51.298;6.430;2023-08-20T05:42:58;23.10;99.90
35970;DHT22;22448;51.298;6.430;2023-08-20T05:45:26;23.90;99.90
35970;DHT22;22448;51.298;6.430;2023-08-20T05:47:53;24.70;99.90
35970;DHT22;22448;51.298;6.430;2023-08-20T05:50:21;25.20;99.90
35970;DHT22;22448;51.298;6.430;2023-08-20T05:52:48;25.80;99.90
35970;DHT22;22448;51.298;6.430;2023-08-20T05:55:15;26.30;99.90
35970;DHT22;22448;51.298;6.430;2023-08-20T05:57:45;26.70;99.90
35970;DHT22;22448;51.298;6.430;2023-08-20T06:00:13;26.90;99.90
35970;DHT22;22448;51.298;6.430;2023-08-20T06:02:40;27.20;99.90
35970;DHT22;22448;51.298;6.430;2023-08-20T06:05:09;27.20;99.90
35970;DHT22;22448;51.298;6.430;2023-08-20T06:07:36;27.50;99.90
35970;DHT22;22448;51.298;6.430;2023-08-20T06:10:03;27.60;99.90
35970;DHT22;22448;51.298;6.430;2023-08-20T06:12:30;27.80;99.90
35970;DHT22;22448;51.298;6.430;2023-08-20T06:14:57;28.20;99.90
35970;DHT22;22448;51.298;6.430;2023-08-20T06:17:24;28.60;99.90
35970;DHT22;22448;51.298;6.430;2023-08-20T06:19:51;28.50;99.90
35970;DHT22;22448;51.298;6.430;2023-08-20T06:22:19;28.60;99.90
35970;DHT22;22448;51.298;6.430;2023-08-20T06:24:46;28.90;99.90
35970;DHT22;22448;51.298;6.430;2023-08-20T06:27:13;29.20;99.90
35970;DHT22;22448;51.298;6.430;2023-08-20T06:29:40;30.00;99.90
35970;DHT22;22448;51.298;6.430;2023-08-20T06:32:07;30.50;99.90
35970;DHT22;22448;51.298;6.430;2023-08-20T06:34:34;30.80;99.90
35970;DHT22;22448;51.298;6.430;2023-08-20T06:37:03;30.90;99.90
35970;DHT22;22448;51.298;6.430;2023-08-20T06:39:30;31.70;99.90
35970;DHT22;22448;51.298;6.430;2023-08-20T06:41:57;32.10;99.90
35970;DHT22;22448;51.298;6.430;2023-08-20T06:44:24;32.20;99.60
35970;DHT22;22448;51.298;6.430;2023-08-20T06:46:51;32.40;99.20
35970;DHT22;22448;51.298;6.430;2023-08-20T06:49:19;32.20;99.60
35970;DHT22;22448;51.298;6.430;2023-08-20T06:51:46;32.40;98.80
35970;DHT22;22448;51.298;6.430;2023-08-20T06:54:15;32.60;98.10
35970;DHT22;22448;51.298;6.430;2023-08-20T06:56:42;32.50;97.40
35970;DHT22;22448;51.298;6.430;2023-08-20T06:59:09;32.60;98.00
35970;DHT22;22448;51.298;6.430;2023-08-20T07:01:37;33.00;97.70
35970;DHT22;22448;51.298;6.430;2023-08-20T07:04:05;33.40;97.40
35970;DHT22;22448;51.298;6.430;2023-08-20T07:06:32;33.50;96.60
35970;DHT22;22448;51.298;6.430;2023-08-20T07:08:59;33.40;97.70
35970;DHT22;22448;51.298;6.430;2023-08-20T07:11:26;33.50;97.20
35970;DHT22;22448;51.298;6.430;2023-08-20T07:13:53;33.80;96.90
35970;DHT22;22448;51.298;6.430;2023-08-20T07:16:20;34.20;96.10
35970;DHT22;22448;51.298;6.430;2023-08-20T07:18:47;34.00;95.30
35970;DHT22;22448;51.298;6.430;2023-08-20T07:21:15;33.60;95.70
35970;DHT22;22448;51.298;6.430;2023-08-20T07:23:42;33.20;97.00
35970;DHT22;22448;51.298;6.430;2023-08-20T07:26:11;32.80;96.60
35970;DHT22;22448;51.298;6.430;2023-08-20T07:28:41;32.40;97.80
35970;DHT22;22448;51.298;6.430;2023-08-20T07:31:31;32.10;97.90
35970;DHT22;22448;51.298;6.430;2023-08-20T07:34:00;32.50;98.20
35970;DHT22;22448;51.298;6.430;2023-08-20T07:36:31;32.90;97.70
35970;DHT22;22448;51.298;6.430;2023-08-20T07:38:59;33.20;97.20
35970;DHT22;22448;51.298;6.430;2023-08-20T07:41:28;33.80;96.40
35970;DHT22;22448;51.298;6.430;2023-08-20T07:43:55;34.30;95.20
35970;DHT22;22448;51.298;6.430;2023-08-20T07:46:22;34.00;95.20
35970;DHT22;22448;51.298;6.430;2023-08-20T07:48:49;34.10;95.20
35970;DHT22;22448;51.298;6.430;2023-08-20T07:51:17;34.40;96.00
35970;DHT22;22448;51.298;6.430;2023-08-20T07:53:44;34.50;94.80
35970;DHT22;22448;51.298;6.430;2023-08-20T07:56:11;33.90;96.00
35970;DHT22;22448;51.298;6.430;2023-08-20T07:58:38;33.80;96.50
35970;DHT22;22448;51.298;6.430;2023-08-20T08:01:05;34.10;96.20
35970;DHT22;22448;51.298;6.430;2023-08-20T08:03:32;32.70;96.00
35970;DHT22;22448;51.298;6.430;2023-08-20T08:05:59;31.60;98.70
35970;DHT22;22448;51.298;6.430;2023-08-20T08:08:26;30.70;99.90
35970;DHT22;22448;51.298;6.430;2023-08-20T08:10:53;29.30;99.90
35970;DHT22;22448;51.298;6.430;2023-08-20T08:13:22;28.30;99.90
35970;DHT22;22448;51.298;6.430;2023-08-20T08:15:50;27.70;99.90
35970;DHT22;22448;51.298;6.430;2023-08-20T08:18:19;27.10;99.90
35970;DHT22;22448;51.298;6.430;2023-08-20T08:20:46;27.60;99.90
35970;DHT22;22448;51.298;6.430;2023-08-20T08:23:13;28.70;99.90
35970;DHT22;22448;51.298;6.430;2023-08-20T08:25:40;29.20;99.90
35970;DHT22;22448;51.298;6.430;2023-08-20T08:28:07;29.30;99.90
35970;DHT22;22448;51.298;6.430;2023-08-20T08:30:34;29.90;99.90
35970;DHT22;22448;51.298;6.430;2023-08-20T08:33:01;30.20;99.90
35970;DHT22;22448;51.298;6.430;2023-08-20T08:35:29;30.60;99.90
35970;DHT22;22448;51.298;6.430;2023-08-20T08:37:56;30.90;99.90
35970;DHT22;22448;51.298;6.430;2023-08-20T08:40:28;31.00;99.90
35970;DHT22;22448;51.298;6.430;2023-08-20T08:42:56;30.90;99.90
35970;DHT22;22448;51.298;6.430;2023-08-20T08:45:23;30.80;99.90
35970;DHT22;22448;51.298;6.430;2023-08-20T08:47:50;31.00;99.90
35970;DHT22;22448;51.298;6.430;2023-08-20T08:50:19;30.80;99.90
35970;DHT22;22448;51.298;6.430;2023-08-20T08:52:47;30.80;99.90
35970;DHT22;22448;51.298;6.430;2023-08-20T08:55:17;30.70;99.90
35970;DHT22;22448;51.298;6.430;2023-08-20T08:57:44;30.50;99.90
35970;DHT22;22448;51.298;6.430;2023-08-20T09:00:12;30.20;99.90
35970;DHT22;22448;51.298;6.430;2023-08-20T09:02:39;29.20;99.90
35970;DHT22;22448;51.298;6.430;2023-08-20T09:05:06;28.60;99.90
35970;DHT22;22448;51.298;6.430;2023-08-20T09:07:34;27.90;99.90
35970;DHT22;22448;51.298;6.430;2023-08-20T09:10:01;27.40;99.90
35970;DHT22;22448;51.298;6.430;2023-08-20T09:12:34;27.30;99.90
35970;DHT22;22448;51.298;6.430;2023-08-20T09:15:01;27.10;99.90
35970;DHT22;22448;51.298;6.430;2023-08-20T09:17:28;27.10;99.90
35970;DHT22;22448;51.298;6.430;2023-08-20T09:19:56;27.30;99.90
35970;DHT22;22448;51.298;6.430;2023-08-20T09:22:27;27.40;99.90
35970;DHT22;22448;51.298;6.430;2023-08-20T09:24:55;27.20;99.90
35970;DHT22;22448;51.298;6.430;2023-08-20T09:27:23;26.80;99.90
35970;DHT22;22448;51.298;6.430;2023-08-20T09:29:55;26.40;99.90
35970;DHT22;22448;51.298;6.430;2023-08-20T09:32:26;26.30;99.90
35970;DHT22;22448;51.298;6.430;2023-08-20T09:34:55;26.50;99.90
35970;DHT22;22448;51.298;6.430;2023-08-20T09:37:23;26.90;99.90
35970;DHT22;22448;51.298;6.430;2023-08-20T09:39:51;27.40;99.90
35970;DHT22;22448;51.298;6.430;2023-08-20T09:42:18;27.60;99.90
35970;DHT22;22448;51.298;6.430;2023-08-20T09:44:46;27.70;99.90
35970;DHT22;22448;51.298;6.430;2023-08-20T09:47:18;28.00;99.90
35970;DHT22;22448;51.298;6.430;2023-08-20T09:49:48;28.40;99.90
35970;DHT22;22448;51.298;6.430;2023-08-20T09:52:31;28.60;99.90
35970;DHT22;22448;51.298;6.430;2023-08-20T09:55:09;28.50;99.90
35970;DHT22;22448;51.298;6.430;2023-08-20T09:57:38;28.50;99.90
35970;DHT22;22448;51.298;6.430;2023-08-20T10:00:07;28.50;99.90
35970;DHT22;22448;51.298;6.430;2023-08-20T10:02:41;28.60;99.90
35970;DHT22;22448;51.298;6.430;2023-08-20T10:05:10;28.30;99.90
35970;DHT22;22448;51.298;6.430;2023-08-20T10:07:38;28.20;99.90
35970;DHT22;22448;51.298;6.430;2023-08-20T10:10:09;28.10;99.90
35970;DHT22;22448;51.298;6.430;2023-08-20T10:12:41;27.80;99.90
35970;DHT22;22448;51.298;6.430;2023-08-20T10:15:12;27.50;99.90
35970;DHT22;22448;51.298;6.430;2023-08-20T10:17:45;27.10;99.90
35970;DHT22;22448;51.298;6.430;2023-08-20T10:20:14;26.80;99.90
35970;DHT22;22448;51.298;6.430;2023-08-20T10:22:43;26.70;99.90
35970;DHT22;22448;51.298;6.430;2023-08-20T10:25:24;26.70;99.90
35970;DHT22;22448;51.298;6.430;2023-08-20T10:27:52;26.60;99.90
35970;DHT22;22448;51.298;6.430;2023-08-20T10:30:23;26.60;99.90
35970;DHT22;22448;51.298;6.430;2023-08-20T10:32:53;26.70;99.90
35970;DHT22;22448;51.298;6.430;2023-08-20T10:38:14;26.80;99.90
35970;DHT22;22448;51.298;6.430;2023-08-20T10:41:00;27.30;99.90
35970;DHT22;22448;51.298;6.430;2023-08-20T10:43:37;27.90;99.90
35970;DHT22;22448;51.298;6.430;2023-08-20T10:46:15;28.20;99.90
35970;DHT22;22448;51.298;6.430;2023-08-20T10:48:46;28.70;99.90
35970;DHT22;22448;51.298;6.430;2023-08-20T10:51:15;28.90;99.90
35970;DHT22;22448;51.298;6.430;2023-08-20T10:54:06;29.20;99.90
35970;DHT22;22448;51.298;6.430;2023-08-20T10:56:57;29.50;99.90
35970;DHT22;22448;51.298;6.430;2023-08-20T10:59:28;29.80;99.90
35970;DHT22;22448;51.298;6.430;2023-08-20T11:01:58;29.70;99.90
35970;DHT22;22448;51.298;6.430;2023-08-20T11:04:30;29.20;99.90
35970;DHT22;22448;51.298;6.430;2023-08-20T11:07:00;28.80;99.90
35970;DHT22;22448;51.298;6.430;2023-08-20T11:09:29;28.80;99.90
35970;DHT22;22448;51.298;6.430;2023-08-20T11:11:56;28.50;99.90
35970;DHT22;22448;51.298;6.430;2023-08-20T11:14:24;28.20;99.90
35970;DHT22;22448;51.298;6.430;2023-08-20T11:16:51;28.00;99.90
35970;DHT22;22448;51.298;6.430;2023-08-20T11:19:21;27.80;99.90
35970;DHT22;22448;51.298;6.430;2023-08-20T11:21:48;27.70;99.90
35970;DHT22;22448;51.298;6.430;2023-08-20T11:24:16;27.70;99.90
35970;DHT22;22448;51.298;6.430;2023-08-20T11:26:44;27.90;99.90
35970;DHT22;22448;51.298;6.430;2023-08-20T11:29:16;28.30;99.90
35970;DHT22;22448;51.298;6.430;2023-08-20T11:31:48;28.50;99.90
35970;DHT22;22448;51.298;6.430;2023-08-20T11:34:18;28.80;99.90
35970;DHT22;22448;51.298;6.430;2023-08-20T11:36:46;29.00;99.90
35970;DHT22;22448;51.298;6.430;2023-08-20T11:39:13;28.90;99.90
35970;DHT22;22448;51.298;6.430;2023-08-20T11:41:40;28.70;99.90
35970;DHT22;22448;51.298;6.430;2023-08-20T11:44:11;28.30;99.90
35970;DHT22;22448;51.298;6.430;2023-08-20T11:46:45;27.80;99.90
35970;DHT22;22448;51.298;6.430;2023-08-20T11:49:13;27.40;99.90
35970;DHT22;22448;51.298;6.430;2023-08-20T11:51:47;27.50;99.90
35970;DHT22;22448;51.298;6.430;2023-08-20T11:54:18;27.90;99.90
35970;DHT22;22448;51.298;6.430;2023-08-20T11:56:49;28.20;99.90
35970;DHT22;22448;51.298;6.430;2023-08-20T11:59:20;28.70;99.90
35970;DHT22;22448;51.298;6.430;2023-08-20T12:02:05;29.00;99.90
35970;DHT22;22448;51.298;6.430;2023-08-20T12:04:33;29.40;99.90
35970;DHT22;22448;51.298;6.430;2023-08-20T12:07:05;29.80;99.90
35970;DHT22;22448;51.298;6.430;2023-08-20T12:09:33;30.00;99.90
35970;DHT22;22448;51.298;6.430;2023-08-20T12:12:01;29.80;99.90
35970;DHT22;22448;51.298;6.430;2023-08-20T12:14:29;29.30;99.90
35970;DHT22;22448;51.298;6.430;2023-08-20T12:16:56;29.40;99.90
35970;DHT22;22448;51.298;6.430;2023-08-20T12:19:24;29.50;99.90
35970;DHT22;22448;51.298;6.430;2023-08-20T12:21:51;29.40;99.90
35970;DHT22;22448;51.298;6.430;2023-08-20T12:24:19;29.10;99.90
35970;DHT22;22448;51.298;6.430;2023-08-20T12:26:47;28.70;99.90
35970;DHT22;22448;51.298;6.430;2023-08-20T12:29:16;28.30;99.90
35970;DHT22;22448;51.298;6.430;2023-08-20T12:31:43;28.20;99.90
35970;DHT22;22448;51.298;6.430;2023-08-20T12:34:10;28.00;99.90
35970;DHT22;22448;51.298;6.430;2023-08-20T12:36:37;28.20;99.90
35970;DHT22;22448;51.298;6.430;2023-08-20T12:39:04;28.40;99.90
35970;DHT22;22448;51.298;6.430;2023-08-20T12:41:32;28.50;99.90
35970;DHT22;22448;51.298;6.430;2023-08-20T12:43:59;28.50;99.90
35970;DHT22;22448;51.298;6.430;2023-08-20T12:46:26;28.60;99.90
35970;DHT22;22448;51.298;6.430;2023-08-20T12:48:53;28.70;99.90
35970;DHT22;22448;51.298;6.430;2023-08-20T12:51:21;28.80;99.90
35970;DHT22;22448;51.298;6.430;2023-08-20T12:53:48;28.90;99.90
35970;DHT22;22448;51.298;6.430;2023-08-20T12:56:15;28.90;99.90
35970;DHT22;22448;51.298;6.430;2023-08-20T12:58:43;29.00;99.90
35970;DHT22;22448;51.298;6.430;2023-08-20T13:01:10;29.00;99.90
35970;DHT22;22448;51.298;6.430;2023-08-20T13:03:38;29.00;99.90
35970;DHT22;22448;51.298;6.430;2023-08-20T13:06:06;29.00;99.90
35970;DHT22;22448;51.298;6.430;2023-08-20T13:08:33;28.90;99.60
35970;DHT22;22448;51.298;6.430;2023-08-20T13:11:01;28.80;99.70
35970;DHT22;22448;51.298;6.430;2023-08-20T13:13:31;28.70;99.90
35970;DHT22;22448;51.298;6.430;2023-08-20T13:15:59;28.80;99.90
35970;DHT22;22448;51.298;6.430;2023-08-20T13:18:27;29.00;99.90
35970;DHT22;22448;51.298;6.430;2023-08-20T13:20:55;29.10;99.90
35970;DHT22;22448;51.298;6.430;2023-08-20T13:23:22;29.20;99.90
35970;DHT22;22448;51.298;6.430;2023-08-20T13:25:50;29.30;99.90
35970;DHT22;22448;51.298;6.430;2023-08-20T13:28:18;29.30;99.90
35970;DHT22;22448;51.298;6.430;2023-08-20T13:30:46;29.40;99.90
35970;DHT22;22448;51.298;6.430;2023-08-20T13:33:13;29.30;99.90
35970;DHT22;22448;51.298;6.430;2023-08-20T13:35:41;29.30;99.10
35970;DHT22;22448;51.298;6.430;2023-08-20T13:38:08;29.20;99.30
35970;DHT22;22448;51.298;6.430;2023-08-20T13:40:35;29.40;99.90
35970;DHT22;22448;51.298;6.430;2023-08-20T13:43:03;29.60;99.90
35970;DHT22;22448;51.298;6.430;2023-08-20T13:45:30;29.70;99.90
35970;DHT22;22448;51.298;6.430;2023-08-20T13:47:58;29.80;99.90
35970;DHT22;22448;51.298;6.430;2023-08-20T13:50:25;29.80;99.40
35970;DHT22;22448;51.298;6.430;2023-08-20T13:52:52;29.70;99.20
35970;DHT22;22448;51.298;6.430;2023-08-20T13:55:19;29.50;97.20
35970;DHT22;22448;51.298;6.430;2023-08-20T13:57:48;29.40;99.30
35970;DHT22;22448;51.298;6.430;2023-08-20T14:00:15;29.40;98.30
35970;DHT22;22448;51.298;6.430;2023-08-20T14:02:42;29.50;98.00
35970;DHT22;22448;51.298;6.430;2023-08-20T14:05:10;29.60;99.30
35970;DHT22;22448;51.298;6.430;2023-08-20T14:07:37;29.60;99.70
35970;DHT22;22448;51.298;6.430;2023-08-20T14:10:05;29.60;98.60
35970;DHT22;22448;51.298;6.430;2023-08-20T14:12:32;29.20;97.90
35970;DHT22;22448;51.298;6.430;2023-08-20T14:14:59;28.80;97.30
35970;DHT22;22448;51.298;6.430;2023-08-20T14:17:27;28.80;97.70
35970;DHT22;22448;51.298;6.430;2023-08-20T14:19:54;28.90;98.30
35970;DHT22;22448;51.298;6.430;2023-08-20T14:22:21;28.80;98.50
35970;DHT22;22448;51.298;6.430;2023-08-20T14:24:49;28.90;99.30
35970;DHT22;22448;51.298;6.430;2023-08-20T14:27:16;29.00;97.90
35970;DHT22;22448;51.298;6.430;2023-08-20T14:29:43;28.90;98.20
35970;DHT22;22448;51.298;6.430;2023-08-20T14:32:10;28.90;98.30
35970;DHT22;22448;51.298;6.430;2023-08-20T14:34:37;28.80;98.70
35970;DHT22;22448;51.298;6.430;2023-08-20T14:37:05;28.90;98.30
35970;DHT22;22448;51.298;6.430;2023-08-20T14:39:32;28.80;97.80
35970;DHT22;22448;51.298;6.430;2023-08-20T14:42:00;28.50;98.40
35970;DHT22;22448;51.298;6.430;2023-08-20T14:44:27;28.50;98.20
35970;DHT22;22448;51.298;6.430;2023-08-20T14:46:54;28.50;99.00
35970;DHT22;22448;51.298;6.430;2023-08-20T14:49:21;28.60;98.60
35970;DHT22;22448;51.298;6.430;2023-08-20T14:51:49;28.50;99.20
35970;DHT22;22448;51.298;6.430;2023-08-20T14:54:16;28.40;98.60
35970;DHT22;22448;51.298;6.430;2023-08-20T14:56:43;28.40;99.50
35970;DHT22;22448;51.298;6.430;2023-08-20T14:59:10;28.50;99.00
35970;DHT22;22448;51.298;6.430;2023-08-20T15:01:37;28.50;98.30
35970;DHT22;22448;51.298;6.430;2023-08-20T15:04:04;28.40;97.60
35970;DHT22;22448;51.298;6.430;2023-08-20T15:06:32;28.40;98.30
35970;DHT22;22448;51.298;6.430;2023-08-20T15:08:59;28.30;98.40
35970;DHT22;22448;51.298;6.430;2023-08-20T15:11:26;28.20;98.00
35970;DHT22;22448;51.298;6.430;2023-08-20T15:13:54;28.20;98.00
35970;DHT22;22448;51.298;6.430;2023-08-20T15:16:21;28.20;97.90
35970;DHT22;22448;51.298;6.430;2023-08-20T15:18:49;28.00;98.70
35970;DHT22;22448;51.298;6.430;2023-08-20T15:21:16;27.90;99.90
35970;DHT22;22448;51.298;6.430;2023-08-20T15:23:43;28.00;99.10
35970;DHT22;22448;51.298;6.430;2023-08-20T15:26:11;28.00;99.50
35970;DHT22;22448;51.298;6.430;2023-08-20T15:28:38;28.00;98.40
35970;DHT22;22448;51.298;6.430;2023-08-20T15:31:06;27.90;98.50
35970;DHT22;22448;51.298;6.430;2023-08-20T15:33:33;27.90;98.30
35970;DHT22;22448;51.298;6.430;2023-08-20T15:36:00;27.80;98.50
35970;DHT22;22448;51.298;6.430;2023-08-20T15:38:27;27.60;99.00
35970;DHT22;22448;51.298;6.430;2023-08-20T15:40:55;27.40;98.90
35970;DHT22;22448;51.298;6.430;2023-08-20T15:43:22;27.40;99.40
35970;DHT22;22448;51.298;6.430;2023-08-20T15:45:49;27.30;99.90